Carlsbad Caverns National Park, NM

5:53 AM MDT on April 28, 2015 (GMT -0600)
Ridgecrest Subdivision | | Change Station
CLOSE
Current Station
Personal Weather Station
Location: Carlsbad, NM
Elevation: 3200 ft
Nearby Weather Stations

Elev 3200 ft 32.43 °N, 104.21 °W | Updated 10 seconds ago

Overcast
Overcast
46.0 °F
Feels Like 42 °F
N
8.0
Wind Variable Wind from WNW
Gusts 20.0 mph

Today
High -- | Low -- °F
--% Chance of Precip.
Yesterday
High -- | Low -- °F
Precip. -- in
6:13 AM 7:35 PM
Waxing Gibbous, 73% visible
Pressure 30.15 in
Visibility 10.0 miles
Clouds Overcast 6000 ft
Windchill 42 °F
Dew Point 40 °F
Humidity 78%
Rainfall 0.00 in
Snow Depth Not available.
UV 0 out of 12
Pollen 7.50 out of 12
Air Quality Not available.
Flu Activity Local Activity
METAR KCNM 281053Z AUTO 34013KT 10SM OVC060 08/01 A3022 RMK AO2 SLP210 T00830011

More Conditions Fewer Conditions

Pressure 30.15 in
Visibility 10.0 miles
Clouds Overcast 6000 ft
Windchill 42 °F
Dew Point 40 °F
Humidity 78%
Rainfall 0.00 in
Snow Depth Not available.
UV 0 out of 12
Pollen 7.50 out of 12
Air Quality Not available.
Flu Activity Local Activity
METAR KCNM 281053Z AUTO 34013KT 10SM OVC060 08/01 A3022 RMK AO2 SLP210 T00830011

More Conditions Fewer Conditions

10-Day Weather Forecast

Almanac

Astronomy

Apr. 28, 2015 Rise Set
Actual Time
Civil Twilight
Nautical Twilight
Astronomical Twilight
Moon
Length of Visible Light
Length of Day
Tomorrow will be .
, % of the Moon is Illuminated

Today's Extremes

State Highs State Lows

Community

WunderPhotos

Upload Photos

1,817,610 photos uploaded!

WunderBlogs® & News

Nearby

Air Quality

  Air Quality AQ Index Pollutant
Not available.

Snow Depth

Station Depth Elevation

Earthquake Activity

City Distance Mag. Time & Date
Minimum magnitude displayed is 2.5.

Coastal Water Temperatures

Place Temperature

Stations

Nearby Weather Stations

Station Location Temp. Windchill Dew Point Humidity Wind Precip. Elev Updated Type